Time;durP1;ratioP1;P1;durP2;ratioP2;P2;SDS_P1;SDS_P2;PMS_P1;PMS_P2;Temp;Humidity;BMP_temperature;BMP_pressure;BME280_temperature;BME280_humidity;BME280_pressure;Samples;Min_cycle;Max_cycle;Signal;HPM_P1;HPM_P2
2022/11/11 00:00:21;;;;;;;12.27;6.75;;;11.80;99.90;;;;;;6183763;23;20016;-84
2022/11/11 00:02:48;;;;;;;18.77;7.43;;;11.80;99.90;;;;;;6184516;23;20008;-83
2022/11/11 00:05:15;;;;;;;16.55;7.03;;;11.80;99.90;;;;;;6184791;23;20024;-83
2022/11/11 00:07:41;;;;;;;15.25;7.38;;;11.80;99.90;;;;;;6183857;23;20044;-85
2022/11/11 00:10:07;;;;;;;17.00;7.40;;;11.80;99.90;;;;;;6211339;23;20012;-83
2022/11/11 00:12:33;;;;;;;18.30;7.20;;;11.80;99.90;;;;;;6183004;23;20016;-84
2022/11/11 00:14:58;;;;;;;17.25;7.72;;;11.80;99.90;;;;;;6184762;23;20016;-83
2022/11/11 00:25:38;;;;;;;15.00;7.25;;;11.80;99.90;;;;;;6184068;23;20655;-83
2022/11/11 00:28:04;;;;;;;19.60;7.03;;;11.80;99.90;;;;;;6184427;23;20298;-84
2022/11/11 00:30:30;;;;;;;13.80;6.72;;;11.90;99.90;;;;;;6185035;23;20020;-83
2022/11/11 00:32:56;;;;;;;14.43;7.20;;;11.80;99.90;;;;;;6184261;23;20090;-82
2022/11/11 00:40:57;;;;;;;15.35;6.72;;;11.80;99.90;;;;;;6173842;23;20362;-83
2022/11/11 00:43:23;;;;;;;16.27;7.25;;;11.80;99.90;;;;;;6151915;23;20434;-84
2022/11/11 00:45:49;;;;;;;16.10;7.47;;;11.80;99.90;;;;;;6152181;23;20014;-84
2022/11/11 00:51:00;;;;;;;14.63;7.63;;;11.80;99.90;;;;;;6174717;23;20100;-83
2022/11/11 00:53:31;;;;;;;14.90;7.75;;;11.80;99.90;;;;;;6150017;23;20057;-82
2022/11/11 00:55:57;;;;;;;22.33;8.18;;;11.80;99.90;;;;;;6150678;23;20796;-84
2022/11/11 00:58:23;;;;;;;16.83;7.43;;;11.80;99.90;;;;;;6125977;23;20021;-82
2022/11/11 01:00:52;;;;;;;19.70;7.57;;;11.80;99.90;;;;;;6126906;23;20028;-84
2022/11/11 01:03:18;;;;;;;19.13;8.30;;;11.80;99.90;;;;;;6150985;23;20049;-84
2022/11/11 01:05:44;;;;;;;18.25;8.55;;;11.80;99.90;;;;;;6151167;23;20017;-85
2022/11/11 01:08:09;;;;;;;24.23;8.27;;;11.80;99.90;;;;;;6150548;23;20468;-84
2022/11/11 01:10:43;;;;;;;17.02;7.65;;;11.80;99.90;;;;;;6150593;23;20104;-82
2022/11/11 01:13:29;;;;;;;17.23;7.40;;;11.80;99.90;;;;;;6151198;23;20041;-84
2022/11/11 01:16:01;;;;;;;15.32;7.43;;;11.80;99.90;;;;;;6153138;23;20026;-83
2022/11/11 01:18:27;;;;;;;19.00;7.85;;;11.80;99.90;;;;;;6152147;23;20080;-84
2022/11/11 01:21:01;;;;;;;16.23;7.57;;;11.80;99.90;;;;;;6153190;23;20016;-83
2022/11/11 01:23:29;;;;;;;14.38;7.90;;;11.80;99.90;;;;;;6153142;23;20014;-84
2022/11/11 01:25:59;;;;;;;17.23;7.72;;;11.80;99.90;;;;;;6153509;23;20432;-84
2022/11/11 01:28:25;;;;;;;18.80;7.90;;;11.80;99.90;;;;;;6126474;23;20144;-84
2022/11/11 01:30:50;;;;;;;14.85;8.15;;;11.80;99.90;;;;;;6151135;23;20443;-84
2022/11/11 01:33:16;;;;;;;15.20;6.78;;;11.80;99.90;;;;;;6154003;23;20461;-84
2022/11/11 01:35:42;;;;;;;16.10;8.00;;;11.70;99.90;;;;;;6153357;23;20432;-84
2022/11/11 01:38:09;;;;;;;17.88;8.15;;;11.80;99.90;;;;;;6150741;23;20010;-83
2022/11/11 01:40:46;;;;;;;15.13;7.68;;;11.80;99.90;;;;;;6170827;23;20013;-84
2022/11/11 01:43:21;;;;;;;15.20;7.88;;;11.70;99.90;;;;;;6180947;23;20461;-83
2022/11/11 01:45:58;;;;;;;16.17;7.82;;;11.70;99.90;;;;;;6181953;23;20017;-83
2022/11/11 01:51:55;;;;;;;17.85;8.25;;;11.70;99.90;;;;;;6206489;23;20028;-85
2022/11/11 01:54:30;;;;;;;17.15;8.02;;;11.60;99.90;;;;;;6146476;23;20016;-83
2022/11/11 01:57:06;;;;;;;18.05;7.93;;;11.60;99.90;;;;;;6205819;23;20017;-84
2022/11/11 01:59:34;;;;;;;18.27;8.30;;;11.60;99.90;;;;;;6179893;23;20020;-84
2022/11/11 02:02:04;;;;;;;17.17;9.43;;;11.60;99.90;;;;;;6179870;23;20063;-85
2022/11/11 02:07:15;;;;;;;15.30;8.20;;;11.60;99.90;;;;;;6182662;23;20021;-84
2022/11/11 02:09:45;;;;;;;17.60;8.50;;;11.60;99.90;;;;;;6155904;23;20473;-84
2022/11/11 02:14:58;;;;;;;15.40;8.77;;;11.60;99.90;;;;;;6205079;23;20057;-84
2022/11/11 02:17:26;;;;;;;15.57;8.70;;;11.60;99.90;;;;;;6181204;23;20064;-84
2022/11/11 02:19:57;;;;;;;19.13;9.52;;;11.60;99.90;;;;;;6182277;23;20024;-84
2022/11/11 02:22:43;;;;;;;16.83;9.68;;;11.60;99.90;;;;;;6182165;23;20005;-83
2022/11/11 02:25:11;;;;;;;19.13;9.90;;;11.60;99.90;;;;;;6182343;23;20564;-84
2022/11/11 02:27:41;;;;;;;15.75;9.35;;;11.60;99.90;;;;;;6180642;23;20017;-84
2022/11/11 02:30:14;;;;;;;20.10;10.50;;;11.50;99.90;;;;;;6182254;23;20107;-83
2022/11/11 02:32:41;;;;;;;17.48;11.10;;;11.50;99.90;;;;;;6181391;23;20045;-84
2022/11/11 02:35:18;;;;;;;22.88;11.40;;;11.50;99.90;;;;;;6180824;23;20325;-84
2022/11/11 02:37:48;;;;;;;20.33;10.95;;;11.50;99.90;;;;;;6179969;23;20333;-84
2022/11/11 02:40:19;;;;;;;20.73;12.18;;;11.40;99.90;;;;;;6195991;23;20063;-84
2022/11/11 02:42:44;;;;;;;21.25;12.43;;;11.40;99.90;;;;;;6185268;23;20013;-84
2022/11/11 02:45:10;;;;;;;21.23;12.57;;;11.40;99.90;;;;;;6185288;23;20027;-84
2022/11/11 02:47:36;;;;;;;19.90;12.23;;;11.40;99.90;;;;;;6212984;23;20013;-83
2022/11/11 02:50:02;;;;;;;24.55;12.90;;;11.30;99.90;;;;;;6184800;23;20008;-84
2022/11/11 02:52:28;;;;;;;23.05;13.48;;;11.30;99.90;;;;;;6184966;23;20492;-84
2022/11/11 02:54:53;;;;;;;23.35;14.00;;;11.30;99.90;;;;;;6160707;23;20021;-84
2022/11/11 02:57:19;;;;;;;24.17;13.90;;;11.30;99.90;;;;;;6161030;23;20059;-84
2022/11/11 02:59:44;;;;;;;23.95;13.95;;;11.20;99.90;;;;;;6211533;23;20017;-84
2022/11/11 03:02:10;;;;;;;21.83;13.93;;;11.30;99.90;;;;;;6184775;23;20027;-85
2022/11/11 03:04:37;;;;;;;26.75;15.35;;;11.20;99.90;;;;;;6184031;23;20013;-84
2022/11/11 03:07:04;;;;;;;24.38;14.40;;;11.20;99.90;;;;;;6183369;23;20017;-83
2022/11/11 03:09:30;;;;;;;21.67;14.65;;;11.20;99.90;;;;;;6211781;23;20019;-84
2022/11/11 03:11:55;;;;;;;26.45;14.63;;;11.20;99.90;;;;;;6185752;23;20008;-84
2022/11/11 03:14:21;;;;;;;26.02;15.98;;;11.20;99.90;;;;;;6209697;23;20040;-83
2022/11/11 03:19:31;;;;;;;25.73;15.13;;;11.20;99.90;;;;;;6209106;23;20385;-84
2022/11/11 03:21:58;;;;;;;23.65;16.40;;;11.30;99.90;;;;;;6210694;23;20008;-83
2022/11/11 03:25:36;;;;;;;27.05;16.48;;;11.10;99.90;;;;;;6211061;23;20019;-84
2022/11/11 03:27:09;;;;;;;24.13;15.88;;;11.20;99.90;;;;;;6210126;23;20436;-84
2022/11/11 03:29:35;;;;;;;23.90;15.82;;;11.20;99.90;;;;;;6211722;23;20021;-83
2022/11/11 03:32:00;;;;;;;25.38;17.23;;;11.20;99.90;;;;;;6160053;23;20021;-84
2022/11/11 03:34:26;;;;;;;31.38;18.00;;;11.10;99.90;;;;;;6184245;23;20074;-84
2022/11/11 03:39:36;;;;;;;26.77;16.95;;;11.10;99.90;;;;;;6208819;23;20028;-84
2022/11/11 03:42:02;;;;;;;25.60;16.60;;;11.10;99.90;;;;;;6184671;23;20013;-83
2022/11/11 03:44:28;;;;;;;28.83;17.48;;;11.20;99.90;;;;;;6212069;23;20020;-83
2022/11/11 03:46:54;;;;;;;25.55;17.15;;;11.10;99.90;;;;;;6182831;23;20088;-84
2022/11/11 03:49:20;;;;;;;29.40;18.50;;;11.10;99.90;;;;;;6183955;23;20020;-84
2022/11/11 03:51:46;;;;;;;25.42;17.85;;;11.20;99.90;;;;;;6184895;23;20329;-84
2022/11/11 03:54:12;;;;;;;27.05;17.98;;;11.10;99.90;;;;;;6158905;23;20456;-83
2022/11/11 03:56:37;;;;;;;28.15;18.30;;;11.10;99.90;;;;;;6160310;23;20019;-84
2022/11/11 03:59:03;;;;;;;28.92;18.73;;;11.10;99.90;;;;;;6184116;23;20013;-84
2022/11/11 04:12:29;;;;;;;29.48;18.23;;;11.10;99.90;;;;;;6210187;23;20055;-83
2022/11/11 04:17:38;;;;;;;31.52;19.13;;;11.10;99.90;;;;;;6210651;23;20016;-84
2022/11/11 04:22:52;;;;;;;26.75;18.20;;;11.10;99.90;;;;;;6210607;23;20053;-84
2022/11/11 04:30:46;;;;;;;27.35;19.40;;;11.00;99.90;;;;;;6209711;23;20020;-84
2022/11/11 04:33:12;;;;;;;35.78;19.65;;;11.00;99.90;;;;;;6185656;23;20013;-83
2022/11/11 04:35:38;;;;;;;29.20;20.63;;;11.00;99.90;;;;;;6214239;23;20012;-83
2022/11/11 04:41:03;;;;;;;33.87;19.47;;;11.00;99.90;;;;;;6211940;23;20448;-83
2022/11/11 04:43:30;;;;;;;27.60;18.85;;;11.00;99.90;;;;;;6186304;23;20337;-84
2022/11/11 04:45:59;;;;;;;30.40;18.40;;;11.00;99.90;;;;;;6185611;23;20021;-84
2022/11/11 04:48:25;;;;;;;28.63;19.80;;;11.00;99.90;;;;;;6211933;23;20031;-84
2022/11/11 04:50:51;;;;;;;30.02;20.25;;;11.00;99.90;;;;;;6186586;23;20755;-84
2022/11/11 04:53:17;;;;;;;32.83;20.55;;;11.00;99.90;;;;;;6184651;23;20068;-83
2022/11/11 04:58:31;;;;;;;33.00;20.20;;;11.00;99.90;;;;;;6211951;23;20016;-84
2022/11/11 05:00:56;;;;;;;29.92;19.30;;;11.00;99.90;;;;;;6185015;23;20063;-84
2022/11/11 05:03:22;;;;;;;29.35;19.58;;;11.00;99.90;;;;;;6161229;23;20341;-84
2022/11/11 05:08:55;;;;;;;36.42;19.55;;;10.90;99.90;;;;;;6210171;23;20024;-84
2022/11/11 05:11:31;;;;;;;30.33;19.52;;;10.90;99.90;;;;;;6213850;23;20397;-84
2022/11/11 05:22:35;;;;;;;32.38;21.20;;;10.90;99.90;;;;;;6212296;23;20036;-84
2022/11/11 05:25:34;;;;;;;31.02;20.08;;;10.90;99.90;;;;;;6212323;23;20052;-83
2022/11/11 05:27:53;;;;;;;31.95;20.65;;;10.90;99.90;;;;;;6180862;23;20020;-83
2022/11/11 05:30:19;;;;;;;37.95;21.50;;;10.90;99.90;;;;;;6209334;23;20012;-84
2022/11/11 05:32:45;;;;;;;36.67;20.75;;;10.90;99.90;;;;;;6185972;23;20111;-84
2022/11/11 05:35:12;;;;;;;34.08;19.75;;;10.90;99.90;;;;;;6212240;23;20040;-83
2022/11/11 05:37:38;;;;;;;33.88;21.70;;;10.90;99.90;;;;;;6161099;23;20021;-83
2022/11/11 05:40:05;;;;;;;30.30;20.73;;;11.20;99.90;;;;;;6211712;23;20072;-83
2022/11/11 05:42:30;;;;;;;33.70;19.35;;;10.90;99.90;;;;;;6211944;23;20079;-83
2022/11/11 05:44:56;;;;;;;32.80;20.58;;;10.90;99.90;;;;;;6211478;23;20091;-84
2022/11/11 05:47:22;;;;;;;31.63;19.40;;;10.90;99.90;;;;;;6185274;23;20051;-84
2022/11/11 05:49:48;;;;;;;32.67;19.40;;;10.90;99.90;;;;;;6184991;23;20021;-83
2022/11/11 05:52:15;;;;;;;29.48;19.10;;;10.90;99.90;;;;;;6209349;23;20025;-83
2022/11/11 05:54:41;;;;;;;30.67;19.35;;;11.00;99.90;;;;;;6211987;23;20066;-83
2022/11/11 05:57:07;;;;;;;31.35;18.35;;;11.00;99.90;;;;;;6212949;23;20440;-83
2022/11/11 05:59:33;;;;;;;30.30;18.42;;;11.00;99.90;;;;;;6212273;23;20063;-82
2022/11/11 06:01:59;;;;;;;32.60;19.90;;;11.10;99.90;;;;;;6184966;23;20488;-83
2022/11/11 06:04:25;;;;;;;32.00;18.92;;;11.10;99.90;;;;;;6212491;23;20032;-83
2022/11/11 06:06:51;;;;;;;30.40;19.85;;;11.10;99.90;;;;;;6208840;23;20016;-84
2022/11/11 06:09:16;;;;;;;35.58;18.50;;;11.20;99.90;;;;;;6214679;23;20008;-87
2022/11/11 06:11:42;;;;;;;31.17;19.80;;;11.10;99.90;;;;;;6192239;23;20013;-85
2022/11/11 06:14:08;;;;;;;31.17;20.02;;;11.20;99.90;;;;;;6218297;23;20016;-86
2022/11/11 06:16:34;;;;;;;32.85;19.83;;;11.30;99.90;;;;;;6218431;23;20055;-86
2022/11/11 06:19:00;;;;;;;33.78;19.40;;;11.20;99.90;;;;;;6188189;23;20453;-85
2022/11/11 06:21:29;;;;;;;32.10;19.10;;;11.30;99.90;;;;;;6216509;23;20016;-85
2022/11/11 06:23:55;;;;;;;32.85;20.25;;;11.20;99.90;;;;;;6215740;23;20021;-86
2022/11/11 06:26:20;;;;;;;32.42;20.45;;;11.20;99.90;;;;;;6188710;23;20020;-86
2022/11/11 06:28:49;;;;;;;31.23;19.42;;;11.10;99.90;;;;;;6186363;23;20016;-86
2022/11/11 06:31:17;;;;;;;29.70;20.00;;;11.10;99.90;;;;;;6188781;23;20024;-86
2022/11/11 06:33:43;;;;;;;32.30;19.38;;;11.10;99.90;;;;;;6162552;23;20012;-86
2022/11/11 06:36:14;;;;;;;35.90;20.25;;;11.10;99.90;;;;;;6188006;23;20233;-85
2022/11/11 06:38:40;;;;;;;30.90;20.40;;;11.10;99.90;;;;;;6188717;23;20013;-85
2022/11/11 06:41:07;;;;;;;31.88;18.92;;;11.10;99.90;;;;;;6188118;23;20388;-86
2022/11/11 06:43:33;;;;;;;31.98;17.33;;;11.10;99.90;;;;;;6187651;23;20012;-85
2022/11/11 06:45:59;;;;;;;33.10;19.27;;;11.10;99.90;;;;;;6163859;23;20071;-85
2022/11/11 06:48:27;;;;;;;34.78;20.38;;;11.10;99.90;;;;;;6188287;23;20021;-85
2022/11/11 06:50:54;;;;;;;32.47;19.27;;;11.20;99.90;;;;;;6184839;23;20083;-86
2022/11/11 06:53:20;;;;;;;31.20;19.88;;;11.10;99.90;;;;;;6182293;23;20059;-85
2022/11/11 06:55:46;;;;;;;34.38;18.90;;;11.10;99.90;;;;;;6184204;23;20009;-85
2022/11/11 06:58:15;;;;;;;31.42;19.30;;;11.10;99.90;;;;;;6183381;23;20337;-85
2022/11/11 07:00:42;;;;;;;28.15;17.85;;;11.70;99.90;;;;;;6183950;23;20019;-86
2022/11/11 07:03:10;;;;;;;31.40;19.13;;;11.10;99.90;;;;;;6183935;23;20008;-85
2022/11/11 07:05:35;;;;;;;30.17;18.50;;;11.10;99.90;;;;;;6210744;23;20400;-85
2022/11/11 07:08:06;;;;;;;31.98;18.60;;;11.10;99.90;;;;;;6210465;23;20040;-87
2022/11/11 07:10:34;;;;;;;31.73;19.48;;;11.10;99.90;;;;;;6183999;23;20016;-86
2022/11/11 07:13:00;;;;;;;33.80;18.83;;;11.10;99.90;;;;;;6158123;23;20058;-86
2022/11/11 07:15:26;;;;;;;32.08;19.00;;;11.20;99.90;;;;;;6182403;23;20016;-87
2022/11/11 07:17:52;;;;;;;28.63;18.70;;;11.20;99.90;;;;;;6211126;23;20397;-86
2022/11/11 07:20:18;;;;;;;34.53;18.70;;;11.20;99.90;;;;;;6207814;23;20020;-86
2022/11/11 07:22:43;;;;;;;29.83;18.17;;;11.20;99.90;;;;;;6184932;23;20009;-91
2022/11/11 07:25:09;;;;;;;30.48;18.85;;;11.40;99.90;;;;;;6185057;23;20017;-87
2022/11/11 07:27:38;;;;;;;29.10;17.30;;;11.20;99.90;;;;;;6183162;23;20012;-87
2022/11/11 07:30:06;;;;;;;30.15;16.67;;;11.10;99.90;;;;;;6182614;23;20020;-83
2022/11/11 07:32:32;;;;;;;32.00;18.88;;;11.20;99.90;;;;;;6211078;23;20016;-87
2022/11/11 07:34:58;;;;;;;29.92;18.13;;;11.30;99.90;;;;;;6183535;23;20342;-86
2022/11/11 07:37:23;;;;;;;33.67;19.23;;;11.90;99.90;;;;;;6210016;23;20321;-87
2022/11/11 07:39:49;;;;;;;32.38;18.25;;;11.20;99.90;;;;;;6209844;23;20545;-86
2022/11/11 07:42:15;;;;;;;32.58;17.13;;;11.20;99.90;;;;;;6183243;23;20013;-85
2022/11/11 07:44:40;;;;;;;31.23;17.42;;;11.20;99.90;;;;;;6182974;23;20017;-84
2022/11/11 07:47:06;;;;;;;34.35;18.48;;;11.20;99.90;;;;;;6157298;23;20020;-85
2022/11/11 07:49:32;;;;;;;30.08;17.08;;;11.20;99.90;;;;;;6183550;23;20026;-85
2022/11/11 07:51:58;;;;;;;26.30;16.90;;;11.20;99.90;;;;;;6183220;23;20334;-85
2022/11/11 07:54:24;;;;;;;29.85;17.55;;;11.20;99.90;;;;;;6183702;23;20453;-85
2022/11/11 07:56:49;;;;;;;32.75;17.65;;;11.20;99.90;;;;;;6183351;23;20017;-85
2022/11/11 07:59:15;;;;;;;27.65;17.15;;;11.20;99.90;;;;;;6183648;23;20026;-85
2022/11/11 08:01:40;;;;;;;34.53;17.08;;;11.30;99.90;;;;;;6183689;23;20027;-85
2022/11/11 08:04:06;;;;;;;26.63;16.05;;;11.30;99.90;;;;;;6183571;23;20051;-85
2022/11/11 08:06:31;;;;;;;25.33;15.25;;;11.30;99.90;;;;;;6183595;23;20013;-85
2022/11/11 08:08:57;;;;;;;29.20;16.33;;;11.30;99.90;;;;;;6183954;23;20012;-85
2022/11/11 08:14:07;;;;;;;25.05;15.32;;;11.30;99.90;;;;;;6210304;23;20021;-85
2022/11/11 08:16:33;;;;;;;30.55;16.38;;;11.40;99.90;;;;;;6183804;23;20460;-85
2022/11/11 08:18:59;;;;;;;28.95;16.60;;;11.30;99.90;;;;;;6183169;23;20013;-85
2022/11/11 08:21:24;;;;;;;29.40;15.85;;;11.40;99.90;;;;;;6183293;23;20024;-85
2022/11/11 08:23:50;;;;;;;33.65;15.30;;;11.40;99.90;;;;;;6182830;23;20031;-86
2022/11/11 08:26:17;;;;;;;27.42;16.67;;;11.40;99.90;;;;;;6210067;23;20017;-85
2022/11/11 08:28:43;;;;;;;27.98;15.75;;;11.40;99.90;;;;;;6183724;23;20082;-85
2022/11/11 08:31:09;;;;;;;28.13;15.45;;;11.40;99.90;;;;;;6209850;23;20036;-85
2022/11/11 08:33:35;;;;;;;28.77;15.23;;;11.40;99.90;;;;;;6183493;23;20024;-85
2022/11/11 08:36:02;;;;;;;22.75;14.63;;;11.40;99.90;;;;;;6210187;23;20394;-85
2022/11/11 08:38:28;;;;;;;23.27;14.68;;;11.50;99.90;;;;;;6209752;23;20013;-85
2022/11/11 08:40:54;;;;;;;31.13;16.13;;;11.50;99.90;;;;;;6209560;23;20012;-85
2022/11/11 08:43:21;;;;;;;27.58;14.68;;;11.50;99.90;;;;;;6210131;23;20022;-84
2022/11/11 08:45:46;;;;;;;27.77;16.67;;;11.50;99.90;;;;;;6183427;23;20596;-85
2022/11/11 08:48:12;;;;;;;24.33;16.08;;;11.50;99.90;;;;;;6209595;23;20059;-85
2022/11/11 08:50:39;;;;;;;29.90;18.50;;;11.50;99.90;;;;;;6183655;23;20019;-85
2022/11/11 08:53:09;;;;;;;24.65;15.40;;;11.50;99.90;;;;;;6182395;23;20040;-85
2022/11/11 08:55:35;;;;;;;24.13;15.75;;;11.50;99.90;;;;;;6183448;23;20016;-85
2022/11/11 08:58:03;;;;;;;23.73;15.93;;;11.50;99.90;;;;;;6210322;23;20032;-85
2022/11/11 09:00:29;;;;;;;23.65;14.68;;;11.70;99.90;;;;;;6209996;23;20009;-85
2022/11/11 09:03:00;;;;;;;27.27;15.57;;;11.50;99.90;;;;;;6210217;23;20389;-84
2022/11/11 09:05:26;;;;;;;21.05;13.30;;;11.50;99.90;;;;;;6210063;23;20012;-85
2022/11/11 09:07:52;;;;;;;24.35;14.32;;;11.50;99.90;;;;;;6209612;23;20087;-85
2022/11/11 09:10:18;;;;;;;24.92;15.45;;;11.50;99.90;;;;;;6183174;23;20067;-84
2022/11/11 09:12:43;;;;;;;24.52;14.73;;;11.50;99.90;;;;;;6183670;23;20013;-85
2022/11/11 09:15:09;;;;;;;25.70;15.00;;;11.60;99.90;;;;;;6209266;23;20063;-85
2022/11/11 09:17:34;;;;;;;27.17;14.68;;;11.60;99.90;;;;;;6210804;23;20043;-85
2022/11/11 09:20:00;;;;;;;23.85;13.82;;;11.60;99.90;;;;;;6185006;23;20023;-85
2022/11/11 09:22:26;;;;;;;25.92;14.45;;;11.60;99.90;;;;;;6211131;23;20036;-85
2022/11/11 09:24:51;;;;;;;20.40;13.85;;;11.60;99.90;;;;;;6212015;23;20329;-85
2022/11/11 09:27:17;;;;;;;23.33;14.10;;;11.60;99.90;;;;;;6184932;23;20051;-85
2022/11/11 09:29:42;;;;;;;23.80;14.23;;;11.60;99.90;;;;;;6211833;23;20016;-85
2022/11/11 09:32:08;;;;;;;21.67;13.45;;;11.60;99.90;;;;;;6211686;23;20092;-84
2022/11/11 09:34:33;;;;;;;22.63;13.15;;;11.60;99.90;;;;;;6211672;23;20020;-85
2022/11/11 09:36:59;;;;;;;26.45;13.88;;;11.60;99.90;;;;;;6184540;23;20015;-84
2022/11/11 09:39:25;;;;;;;21.85;14.27;;;11.60;99.90;;;;;;6211303;23;20083;-85
2022/11/11 09:42:16;;;;;;;22.30;14.43;;;11.70;99.90;;;;;;6185851;23;20342;-84
2022/11/11 09:45:07;;;;;;;20.73;12.68;;;11.70;99.90;;;;;;6212050;23;20012;-85
2022/11/11 09:47:51;;;;;;;22.48;14.32;;;11.70;99.90;;;;;;6210030;23;20025;-84
2022/11/11 09:50:22;;;;;;;24.37;15.60;;;11.70;99.90;;;;;;6184800;23;20019;-84
2022/11/11 09:53:09;;;;;;;24.88;14.32;;;11.70;99.90;;;;;;6184650;23;20735;-84
2022/11/11 09:55:55;;;;;;;20.50;13.10;;;11.70;99.90;;;;;;6211891;23;20134;-84
2022/11/11 09:58:27;;;;;;;22.02;13.63;;;11.70;99.90;;;;;;6184859;23;20039;-85
2022/11/11 10:01:17;;;;;;;23.85;13.75;;;11.70;99.90;;;;;;6211295;23;20484;-85
2022/11/11 10:03:50;;;;;;;26.13;16.23;;;11.70;99.90;;;;;;6193518;23;20021;-85
2022/11/11 10:06:26;;;;;;;23.17;14.52;;;11.80;99.90;;;;;;6210290;23;20009;-85
2022/11/11 10:09:01;;;;;;;23.95;13.15;;;11.80;99.90;;;;;;6211839;23;20004;-84
2022/11/11 10:11:48;;;;;;;20.60;13.50;;;11.80;99.90;;;;;;6184775;23;20019;-84
2022/11/11 10:14:15;;;;;;;21.10;13.57;;;11.80;99.90;;;;;;6184657;23;20017;-85
2022/11/11 10:16:53;;;;;;;25.20;13.90;;;11.90;99.90;;;;;;6211664;23;20013;-85
2022/11/11 10:19:32;;;;;;;21.38;12.75;;;11.90;99.90;;;;;;6211427;23;20099;-84
2022/11/11 10:22:12;;;;;;;22.00;12.68;;;11.90;99.90;;;;;;6183812;23;20012;-85
2022/11/11 10:24:40;;;;;;;23.52;14.43;;;11.90;99.90;;;;;;6184466;23;20021;-84
2022/11/11 10:27:20;;;;;;;23.13;13.23;;;11.90;99.90;;;;;;6211139;23;20008;-85
2022/11/11 10:29:48;;;;;;;17.80;12.65;;;11.90;99.90;;;;;;6210961;23;20020;-84
2022/11/11 10:32:25;;;;;;;22.27;11.75;;;11.90;99.90;;;;;;6184096;23;20017;-84
2022/11/11 10:34:51;;;;;;;18.48;12.65;;;11.90;99.90;;;;;;6211072;23;20020;-84
2022/11/11 10:37:38;;;;;;;22.27;13.40;;;11.90;99.90;;;;;;6210847;23;20098;-84
2022/11/11 10:40:04;;;;;;;18.33;11.70;;;11.90;99.90;;;;;;6210984;23;20021;-84
2022/11/11 10:42:29;;;;;;;22.95;13.00;;;12.00;99.90;;;;;;6210942;23;20023;-84
2022/11/11 10:44:59;;;;;;;21.17;13.15;;;12.00;99.90;;;;;;6159737;23;20075;-84
2022/11/11 10:47:53;;;;;;;21.83;13.02;;;12.00;99.90;;;;;;6184185;23;20027;-84
2022/11/11 10:50:30;;;;;;;22.75;12.88;;;12.10;99.90;;;;;;6182757;23;20434;-85
2022/11/11 10:53:31;;;;;;;18.95;12.50;;;12.10;99.90;;;;;;6180714;23;20051;-85
2022/11/11 10:56:27;;;;;;;18.20;12.32;;;12.10;99.90;;;;;;6209259;23;20039;-85
2022/11/11 10:58:55;;;;;;;19.27;12.27;;;12.20;99.90;;;;;;6209792;23;20016;-86
2022/11/11 11:01:56;;;;;;;19.90;13.07;;;12.20;99.90;;;;;;6210033;23;20012;-85
2022/11/11 11:04:28;;;;;;;17.73;11.90;;;12.20;99.90;;;;;;6149971;23;20383;-85
2022/11/11 11:06:56;;;;;;;22.23;12.82;;;12.30;99.90;;;;;;6211113;23;20044;-85
2022/11/11 11:09:44;;;;;;;17.40;11.25;;;12.30;99.90;;;;;;6183314;23;20019;-85
2022/11/11 11:12:33;;;;;;;18.42;11.07;;;12.40;99.90;;;;;;6210560;23;20415;-85
2022/11/11 11:15:04;;;;;;;19.38;11.70;;;12.50;99.90;;;;;;6190788;23;20017;-85
2022/11/11 11:17:55;;;;;;;18.63;10.75;;;12.50;99.90;;;;;;6209581;23;20416;-85
2022/11/11 11:20:21;;;;;;;20.08;11.25;;;12.50;99.90;;;;;;6181981;23;20016;-85
2022/11/11 11:23:01;;;;;;;37.78;21.25;;;12.50;99.90;;;;;;6183222;23;20047;-85
2022/11/11 11:25:32;;;;;;;29.90;15.20;;;12.60;99.90;;;;;;6209744;23;20467;-86
2022/11/11 11:28:07;;;;;;;21.50;14.20;;;12.60;99.90;;;;;;6210521;23;20051;-85
2022/11/11 11:30:33;;;;;;;23.42;16.30;;;12.60;99.90;;;;;;6208477;23;20026;-85
2022/11/11 11:33:04;;;;;;;19.73;12.15;;;12.70;99.90;;;;;;6183277;23;20473;-85
2022/11/11 11:35:35;;;;;;;20.77;13.20;;;12.70;99.90;;;;;;6182634;23;20446;-85
2022/11/11 11:38:01;;;;;;;18.92;11.60;;;12.70;99.90;;;;;;6207967;23;20487;-85
2022/11/11 11:40:27;;;;;;;20.33;16.65;;;12.70;99.90;;;;;;6183057;23;20095;-85
2022/11/11 11:42:53;;;;;;;15.25;10.93;;;12.80;99.90;;;;;;6210038;23;20017;-85
2022/11/11 11:45:22;;;;;;;18.13;11.43;;;12.80;99.90;;;;;;6210102;23;20016;-85
2022/11/11 11:48:15;;;;;;;16.27;12.38;;;12.80;99.90;;;;;;6209099;23;20351;-85
2022/11/11 11:51:22;;;;;;;15.93;10.40;;;12.80;99.90;;;;;;6210585;23;20102;-85
2022/11/11 11:54:13;;;;;;;15.10;10.00;;;12.80;99.90;;;;;;6133784;23;20012;-85
2022/11/11 11:56:49;;;;;;;15.65;10.05;;;12.70;99.90;;;;;;6181731;23;20017;-85
2022/11/11 11:59:27;;;;;;;16.13;10.45;;;12.70;99.90;;;;;;6209543;23;20487;-85
2022/11/11 12:02:11;;;;;;;19.17;10.18;;;12.60;99.90;;;;;;6210206;23;20013;-86
2022/11/11 12:05:18;;;;;;;15.43;10.52;;;12.60;99.90;;;;;;6210321;23;20024;-85
2022/11/11 12:08:27;;;;;;;15.77;9.68;;;12.60;99.90;;;;;;6209976;23;20020;-85
2022/11/11 12:11:18;;;;;;;16.60;10.55;;;12.60;99.90;;;;;;6209156;23;20333;-86
2022/11/11 12:13:53;;;;;;;16.88;9.77;;;12.60;99.90;;;;;;6183580;23;20120;-86
2022/11/11 12:16:25;;;;;;;;;;;12.60;99.90;;;;;;6209706;23;20015;-86
2022/11/11 12:19:16;;;;;;;18.92;10.68;;;12.60;99.90;;;;;;6210582;23;19983;-81
2022/11/11 12:22:00;;;;;;;40.08;21.38;;;12.60;99.90;;;;;;6209248;23;20055;-81
2022/11/11 12:25:11;;;;;;;19.33;11.02;;;12.60;99.90;;;;;;6210483;23;20025;-81
2022/11/11 12:28:01;;;;;;;16.05;10.05;;;12.50;99.90;;;;;;6058519;23;20092;-82
2022/11/11 12:30:29;;;;;;;16.98;10.35;;;12.50;99.90;;;;;;6034576;23;20019;-82
2022/11/11 12:33:08;;;;;;;16.58;10.15;;;12.50;99.90;;;;;;6059397;23;20039;-81
2022/11/11 12:35:49;;;;;;;16.27;9.80;;;12.50;99.90;;;;;;6059639;23;20359;-82
2022/11/11 12:38:35;;;;;;;19.25;10.52;;;12.60;99.90;;;;;;6034679;23;20027;-82
2022/11/11 12:41:25;;;;;;;17.67;10.07;;;12.40;99.90;;;;;;6059245;23;20533;-82
2022/11/11 12:44:12;;;;;;;18.02;11.13;;;12.40;99.90;;;;;;6034864;23;20022;-82
2022/11/11 12:47:07;;;;;;;16.17;12.05;;;12.40;99.90;;;;;;6034250;23;20022;-83
2022/11/11 12:49:32;;;;;;;17.98;10.95;;;12.40;99.90;;;;;;6058993;23;20046;-80
2022/11/11 12:52:17;;;;;;;16.23;10.65;;;12.40;99.90;;;;;;6059337;23;20407;-81
2022/11/11 12:55:04;;;;;;;17.95;11.43;;;12.50;99.90;;;;;;6060510;23;20018;-81
2022/11/11 12:57:50;;;;;;;16.40;10.10;;;12.50;99.90;;;;;;6061224;23;20061;-81
2022/11/11 13:00:21;;;;;;;15.38;9.85;;;12.50;99.90;;;;;;6060575;23;20057;-81
2022/11/11 13:03:21;;;;;;;17.65;10.43;;;12.50;99.90;;;;;;6061419;23;20015;-81
2022/11/11 13:06:02;;;;;;;16.63;10.60;;;12.50;99.90;;;;;;6184646;23;20039;-81
2022/11/11 13:08:56;;;;;;;18.17;11.48;;;12.50;99.90;;;;;;6212017;23;20066;-81
2022/11/11 13:11:32;;;;;;;15.65;10.05;;;12.50;99.90;;;;;;6184938;23;20020;-85
2022/11/11 13:14:09;;;;;;;15.82;10.07;;;12.50;99.90;;;;;;6210152;23;20062;-86
2022/11/11 13:16:35;;;;;;;16.23;10.05;;;12.50;99.90;;;;;;6211115;23;20027;-85
2022/11/11 13:19:17;;;;;;;17.35;11.15;;;12.40;99.90;;;;;;6211143;23;20044;-86
2022/11/11 13:22:25;;;;;;;15.05;9.43;;;12.40;99.90;;;;;;6211831;23;20500;-86
2022/11/11 13:24:52;;;;;;;17.05;10.48;;;12.40;99.90;;;;;;6114699;23;20326;-87
2022/11/11 13:27:23;;;;;;;17.70;10.15;;;12.30;99.90;;;;;;6184320;23;20009;-85
2022/11/11 13:30:10;;;;;;;17.15;10.82;;;12.30;99.90;;;;;;6211053;23;20012;-86
2022/11/11 13:32:54;;;;;;;16.27;10.98;;;12.20;99.90;;;;;;6211176;23;20021;-86
2022/11/11 13:35:34;;;;;;;18.60;11.20;;;12.30;99.90;;;;;;6159176;23;20055;-86
2022/11/11 13:38:01;;;;;;;20.98;10.85;;;12.20;99.90;;;;;;6211362;23;20016;-86
2022/11/11 13:40:37;;;;;;;20.77;11.57;;;12.20;99.90;;;;;;6211598;23;20083;-86
2022/11/11 13:43:04;;;;;;;17.48;10.25;;;12.20;99.90;;;;;;6183970;23;20023;-86
2022/11/11 13:45:36;;;;;;;19.20;11.30;;;12.20;99.90;;;;;;6183897;23;20095;-86
2022/11/11 13:48:03;;;;;;;22.90;11.65;;;12.10;99.90;;;;;;6181692;23;20025;-86
2022/11/11 13:50:32;;;;;;;17.63;10.93;;;12.10;99.90;;;;;;6184236;23;20013;-86
2022/11/11 13:53:13;;;;;;;19.73;11.48;;;12.10;99.90;;;;;;6211099;23;20792;-86
2022/11/11 13:55:44;;;;;;;15.43;10.38;;;12.20;99.90;;;;;;6184857;23;20013;-86
2022/11/11 13:58:26;;;;;;;18.58;11.25;;;12.20;99.90;;;;;;6210881;23;20008;-86
2022/11/11 14:01:04;;;;;;;18.70;11.70;;;12.20;99.90;;;;;;6210915;23;20107;-85